Time;durP1;ratioP1;P1;durP2;ratioP2;P2;SDS_P1;SDS_P2;PMS_P1;PMS_P2;Temp;Humidity;BMP_temperature;BMP_pressure;BME280_temperature;BME280_humidity;BME280_pressure;Samples;Min_cycle;Max_cycle;Signal;HPM_P1;HPM_P2
2022/07/15 00:19:06;;;;;;;5.08;3.42;;;;;;;16.97;97.24;98717.98;4315680;80;21051;-85
2022/07/15 00:25:17;;;;;;;5.33;3.27;;;;;;;17.05;98.40;98756.13;4325528;80;21023;-85
2022/07/15 00:31:39;;;;;;;3.77;3.42;;;;;;;17.07;98.25;98730.22;4315977;80;21043;-85
2022/07/15 00:37:59;;;;;;;3.52;3.22;;;;;;;16.97;98.50;98742.28;4324783;80;21098;-85
2022/07/15 00:44:12;;;;;;;4.53;3.47;;;;;;;17.06;98.99;98743.88;4295135;80;21185;-85
2022/07/15 00:50:24;;;;;;;5.65;3.98;;;;;;;16.93;98.34;98738.78;4313661;80;21609;-85
2022/07/15 00:56:37;;;;;;;4.85;3.70;;;;;;;16.91;99.04;98735.66;4321643;80;21536;-85
2022/07/15 01:02:58;;;;;;;3.92;3.52;;;;;;;16.92;99.25;98748.30;4239553;81;21067;-85
2022/07/15 01:09:10;;;;;;;5.12;3.55;;;;;;;16.84;99.56;98752.38;4189937;82;21202;-85
2022/07/15 01:15:25;;;;;;;;;;;;;;;16.92;99.61;98731.70;4226335;82;21072;-85
2022/07/15 01:21:35;;;;;;;3.77;3.17;;;;;;;17.04;100.00;98738.58;4231039;82;20113;-85
2022/07/15 01:27:37;;;;;;;5.80;4.03;;;;;;;16.94;99.91;98746.48;4251024;82;21046;-86
2022/07/15 01:33:56;;;;;;;5.28;3.75;;;;;;;16.97;99.96;98740.90;4316505;80;21715;-84
2022/07/15 01:40:01;;;;;;;4.12;3.72;;;;;;;16.91;99.87;98735.66;4316798;80;21053;-86
2022/07/15 01:46:15;;;;;;;5.53;4.33;;;;;;;16.89;100.00;98732.55;4310661;80;21555;-85
2022/07/15 01:52:26;;;;;;;4.08;3.33;;;;;;;16.91;100.00;98731.50;4313223;80;21005;-85
2022/07/15 01:58:43;;;;;;;4.65;3.30;;;;;;;16.95;100.00;98732.83;4288771;80;21043;-85
2022/07/15 02:04:48;;;;;;;5.53;3.00;;;;;;;16.96;100.00;98736.55;4310996;80;21128;-84
2022/07/15 02:10:50;;;;;;;5.30;3.10;;;;;;;16.84;100.00;98730.27;4300510;80;21549;-84
2022/07/15 02:17:03;;;;;;;3.83;3.37;;;;;;;16.78;99.92;98736.70;4308994;80;21081;-85
2022/07/15 02:23:13;;;;;;;7.28;3.75;;;;;;;16.65;100.00;98739.88;4167179;83;21279;-85
2022/07/15 02:29:20;;;;;;;6.75;3.90;;;;;;;16.61;100.00;98747.47;4166628;83;21630;-85
2022/07/15 02:35:31;;;;;;;7.65;3.62;;;;;;;16.58;100.00;98756.00;4160025;83;21102;-85
2022/07/15 02:41:39;;;;;;;7.37;3.98;;;;;;;16.49;100.00;98770.17;4159432;83;21500;-85
2022/07/15 02:47:58;;;;;;;6.53;4.33;;;;;;;16.44;100.00;98776.96;4166333;83;21079;-85
2022/07/15 02:54:07;;;;;;;7.60;4.17;;;;;;;16.39;100.00;98777.98;4165072;83;21117;-84
2022/07/15 03:00:26;;;;;;;7.92;4.90;;;;;;;16.43;100.00;98787.78;4308744;80;21055;-84
2022/07/15 03:06:39;;;;;;;11.90;5.40;;;;;;;16.49;100.00;98797.19;4319033;80;21626;-84
2022/07/15 03:12:52;;;;;;;5.97;4.40;;;;;;;16.54;100.00;98801.45;4316763;80;21110;-84
2022/07/15 03:19:14;;;;;;;6.08;4.25;;;;;;;16.54;100.00;98802.83;4338354;80;21071;-85
2022/07/15 03:25:24;;;;;;;7.72;5.15;;;;;;;16.54;100.00;98810.53;4350899;80;21106;-85
2022/07/15 03:31:37;;;;;;;7.67;5.17;;;;;;;16.59;100.00;98814.20;4317988;80;21062;-86
2022/07/15 03:37:51;;;;;;;11.70;6.28;;;;;;;16.59;100.00;98815.59;4303879;79;21117;-84
2022/07/15 03:43:54;;;;;;;10.35;8.25;;;;;;;16.57;100.00;98818.60;4316214;80;21085;-84
2022/07/15 03:50:00;;;;;;;10.98;7.90;;;;;;;16.55;100.00;98834.19;4248981;82;21537;-84
2022/07/15 03:56:11;;;;;;;9.13;6.93;;;;;;;16.58;100.00;98845.02;4350572;80;21355;-84
2022/07/15 04:02:25;;;;;;;10.78;7.40;;;;;;;16.63;100.00;98843.17;4323382;80;21052;-84
2022/07/15 04:08:34;;;;;;;12.82;9.03;;;;;;;16.70;100.00;98851.34;4127602;80;5115746;-84
2022/07/15 04:14:45;;;;;;;12.82;8.58;;;;;;;16.75;100.00;98848.11;4129201;83;21095;-85
2022/07/15 04:20:58;;;;;;;12.78;9.48;;;;;;;16.78;100.00;98859.70;4172186;83;21065;-84
2022/07/15 04:33:27;;;;;;;12.88;10.23;;;;;;;16.84;100.00;98876.00;4144581;83;21062;-84
2022/07/15 09:41:43;;;;;;;9.25;1.55;;;;;;;21.10;74.18;99195.64;4714723;74;27242;-87
2022/07/15 09:54:53;;;;;;;3.17;1.30;;;;;;;21.11;72.05;99193.81;4421738;79;21038;-87
2022/07/15 10:01:03;;;;;;;2.33;1.50;;;;;;;21.68;71.52;99193.73;4414597;79;21094;-87
2022/07/15 10:14:42;;;;;;;1.72;0.60;;;;;;;23.02;69.82;99187.92;4034269;84;21141;-87
2022/07/15 10:21:07;;;;;;;2.37;0.68;;;;;;;23.06;68.07;99181.58;4107998;81;21089;-87
2022/07/15 10:27:52;;;;;;;5.12;0.90;;;;;;;23.61;66.84;99184.14;4287944;78;21047;-86
2022/07/15 10:34:20;;;;;;;2.33;0.93;;;;;;;23.58;65.80;99198.42;4455524;78;21018;-86
2022/07/15 10:40:42;;;;;;;2.15;0.98;;;;;;;23.82;64.79;99200.86;4472657;78;20956;-86
2022/07/15 11:00:55;;;;;;;3.37;0.70;;;;;;;24.45;61.59;99194.13;4186510;83;21419;-87
2022/07/15 11:07:36;;;;;;;4.95;1.00;;;;;;;24.91;61.21;99194.20;4311729;80;20977;-86
2022/07/15 11:20:46;;;;;;;4.90;0.80;;;;;;;25.67;59.61;99199.73;4475017;79;21009;-86
2022/07/15 11:27:17;;;;;;;2.27;0.70;;;;;;;26.26;59.06;99193.14;4493683;77;21006;-86
2022/07/15 11:33:35;;;;;;;3.65;0.80;;;;;;;26.43;56.97;99190.08;4437344;78;21078;-86
2022/07/15 11:44:29;;;;;;;3.83;0.90;;;;;;;25.98;55.41;99205.09;4448750;78;21004;-86
2022/07/15 11:46:24;;;;;;;2.75;0.95;;;;;;;25.58;55.01;99203.97;4415055;78;21083;-86
2022/07/15 11:52:33;;;;;;;4.33;1.00;;;;;;;25.32;54.25;99201.96;4446861;78;21562;-85
2022/07/15 12:05:24;;;;;;;4.62;1.12;;;;;;;24.27;53.06;99207.29;4439002;78;21018;-85
2022/07/15 12:12:07;;;;;;;;;;;;;;;23.91;51.32;99214.11;4440164;79;21027;-85
2022/07/15 12:18:31;;;;;;;5.55;0.68;;;;;;;23.91;51.51;99207.91;4503145;76;20134;-86
2022/07/15 12:24:44;;;;;;;1.60;0.70;;;;;;;23.74;50.93;99209.35;4521078;76;21024;-84
2022/07/15 12:30:52;;;;;;;3.72;0.80;;;;;;;23.54;50.71;99213.77;4508316;78;21026;-84
2022/07/15 12:37:34;;;;;;;3.08;1.02;;;;;;;23.30;48.88;99207.08;4530763;77;21029;-86
2022/07/15 12:44:01;;;;;;;2.30;0.80;;;;;;;23.07;49.39;99198.48;4548005;78;21008;-86
2022/07/15 12:56:52;;;;;;;3.67;0.78;;;;;;;22.75;48.90;99203.83;4536935;76;20951;-86
2022/07/15 13:03:11;;;;;;;3.12;0.70;;;;;;;22.02;48.80;99214.63;4526951;76;21655;-86
2022/07/15 13:09:26;;;;;;;3.40;1.15;;;;;;;21.89;48.47;99212.44;4517871;76;20970;-87
2022/07/15 13:15:29;;;;;;;2.20;1.10;;;;;;;21.94;48.74;99203.53;4546792;76;21079;-84
2022/07/15 13:21:32;;;;;;;5.67;1.00;;;;;;;21.90;48.13;99206.42;4528232;76;21017;-85
2022/07/15 13:27:53;;;;;;;2.45;0.93;;;;;;;21.74;48.23;99205.88;4493292;76;21540;-85
2022/07/15 13:34:30;;;;;;;1.62;0.75;;;;;;;21.72;48.83;99206.17;4526780;76;21015;-86
2022/07/15 13:47:17;;;;;;;2.10;0.93;;;;;;;21.77;49.03;99202.83;4529692;76;21083;-84
2022/07/15 13:53:33;;;;;;;4.75;0.98;;;;;;;21.72;47.39;99213.89;4498656;77;21113;-85
2022/07/15 13:59:51;;;;;;;2.87;1.00;;;;;;;21.58;47.86;99206.59;4494504;77;20962;-85
2022/07/15 14:20:03;;;;;;;2.92;1.05;;;;;;;21.67;47.96;99209.50;4209713;78;21017;-86
2022/07/15 14:26:06;;;;;;;3.50;0.88;;;;;;;21.34;46.86;99214.45;4525787;77;21362;-86
2022/07/15 14:32:24;;;;;;;1.35;0.88;;;;;;;21.26;47.97;99214.48;4507659;76;20977;-86
2022/07/15 14:45:28;;;;;;;1.57;0.80;;;;;;;21.45;47.43;99202.39;4527451;76;21014;-85
2022/07/15 14:51:33;;;;;;;4.80;1.12;;;;;;;21.23;47.63;99205.63;4526893;76;21060;-87
2022/07/15 14:58:10;;;;;;;4.97;1.20;;;;;;;20.99;47.76;99204.91;4517996;76;21615;-86
2022/07/15 15:04:32;;;;;;;3.95;1.55;;;;;;;20.91;47.98;99203.50;4433953;76;21060;-86
2022/07/15 15:17:29;;;;;;;1.30;0.90;;;;;;;21.18;48.33;99202.58;4270693;80;21049;-84
2022/07/15 15:23:32;;;;;;;3.42;0.90;;;;;;;21.28;48.08;99208.47;4309963;82;20987;-87
2022/07/15 15:29:34;;;;;;;1.67;0.75;;;;;;;21.29;47.91;99207.23;4267089;81;21130;-87
2022/07/15 15:35:44;;;;;;;1.57;0.85;;;;;;;21.20;48.08;99214.86;4269629;81;21019;-85
2022/07/15 15:41:53;;;;;;;4.72;0.90;;;;;;;21.00;48.61;99212.05;4326406;79;21063;-86
2022/07/15 15:47:56;;;;;;;3.65;1.00;;;;;;;20.75;48.75;99212.66;4353976;80;20976;-86
2022/07/15 15:54:32;;;;;;;2.47;0.85;;;;;;;20.53;48.61;99215.82;4301996;80;21453;-86
2022/07/15 16:00:40;;;;;;;2.50;1.02;;;;;;;20.45;48.64;99210.89;4355712;79;21942;-86
2022/07/15 16:06:41;;;;;;;2.87;1.07;;;;;;;20.59;48.50;99202.98;4352960;79;21032;-86
2022/07/15 16:12:49;;;;;;;3.40;1.02;;;;;;;20.63;48.15;99213.39;4354963;79;20988;-86
2022/07/15 16:18:55;;;;;;;3.17;0.90;;;;;;;20.43;48.27;99215.50;4523532;76;21023;-87
2022/07/15 16:24:59;;;;;;;2.67;0.80;;;;;;;20.32;48.45;99219.75;4518354;76;21015;-87
2022/07/15 16:31:29;;;;;;;1.65;0.80;;;;;;;20.33;48.56;99209.58;4517475;76;21046;-86
2022/07/15 16:37:31;;;;;;;1.60;0.60;;;;;;;20.33;48.60;99217.16;4542045;76;20956;-87
2022/07/15 16:50:25;;;;;;;1.87;1.07;;;;;;;20.21;48.29;99218.63;4513408;76;21045;-87
2022/07/15 16:56:40;;;;;;;2.17;0.98;;;;;;;20.07;48.55;99224.48;4519794;77;21094;-87
2022/07/15 17:02:49;;;;;;;3.05;1.07;;;;;;;19.87;48.33;99218.98;4390423;76;10000541;-87
2022/07/15 17:30:18;;;;;;;3.45;0.82;;;;;;;19.20;49.76;99228.55;4632201;76;20964;-87
2022/07/15 17:36:39;;;;;;;2.02;1.02;;;;;;;19.15;50.63;99227.66;4261949;82;21090;-87
2022/07/15 17:49:41;;;;;;;2.75;0.93;;;;;;;19.03;50.89;99233.84;4299494;80;21062;-88
2022/07/15 17:55:42;;;;;;;2.47;0.93;;;;;;;18.96;50.60;99233.96;4237155;82;21067;-87
2022/07/15 18:01:45;;;;;;;2.25;1.20;;;;;;;18.89;50.54;99239.03;4121012;82;10000015;-88
2022/07/15 18:07:51;;;;;;;4.55;1.50;;;;;;;18.79;50.49;99236.46;4259127;79;21018;-88
2022/07/15 18:14:26;;;;;;;4.87;1.10;;;;;;;18.63;50.51;99238.52;4507814;79;21020;-88
2022/07/15 18:20:43;;;;;;;1.32;0.80;;;;;;;18.50;50.78;99240.33;4430835;79;20968;-87
2022/07/15 18:54:15;;;;;;;1.90;1.00;;;;;;;17.56;53.33;99293.11;4500798;79;21005;-88
2022/07/15 19:07:02;;;;;;;4.08;1.70;;;;;;;17.33;53.89;99315.69;4472769;79;21491;-87
2022/07/15 19:13:08;;;;;;;7.65;2.00;;;;;;;17.12;54.27;99320.25;4513714;77;21012;-87
2022/07/15 19:19:09;;;;;;;5.42;2.08;;;;;;;16.94;54.64;99328.54;4511527;76;21005;-87
2022/07/15 19:25:33;;;;;;;6.17;1.98;;;;;;;16.75;55.73;99330.48;4502914;78;20945;-87
2022/07/15 19:38:46;;;;;;;4.37;2.22;;;;;;;16.41;56.86;99329.53;4477757;78;21143;-87
2022/07/15 19:44:51;;;;;;;2.17;1.50;;;;;;;16.16;57.34;99338.58;4320484;82;21064;-87
2022/07/15 19:51:15;;;;;;;2.20;1.37;;;;;;;16.01;58.32;99343.38;4466581;79;21560;-87
2022/07/15 19:57:25;;;;;;;5.40;4.58;;;;;;;15.81;59.32;99338.16;4234775;82;21117;-87
2022/07/15 20:03:44;;;;;;;7.35;3.75;;;;;;;15.64;59.83;99337.64;4256812;82;20972;-86
2022/07/15 20:10:00;;;;;;;12.50;6.58;;;;;;;15.47;60.22;99337.87;4255057;82;21057;-86
2022/07/15 20:16:31;;;;;;;9.50;4.87;;;;;;;15.36;60.80;99342.61;4382262;81;21460;-87
2022/07/15 20:29:31;;;;;;;7.55;3.40;;;;;;;14.92;62.16;99347.83;4328355;81;21022;-87
2022/07/15 20:36:01;;;;;;;;;;;;;;;14.70;62.81;99352.34;4525493;76;20992;-87
2022/07/15 20:48:58;;;;;;;9.60;3.20;;;;;;;14.49;63.97;99357.25;4466416;78;21021;-87
2022/07/15 20:55:28;;;;;;;5.80;2.85;;;;;;;14.41;64.37;99363.92;4499159;77;21001;-87
2022/07/15 21:02:10;;;;;;;12.63;4.45;;;;;;;14.29;65.98;99373.94;4329005;80;21006;-87
2022/07/15 21:08:18;;;;;;;13.65;5.70;;;;;;;14.28;65.83;99377.88;4499124;78;20940;-87
2022/07/15 21:14:22;;;;;;;18.73;8.20;;;;;;;14.13;66.77;99372.89;4498417;77;20973;-87
2022/07/15 21:33:51;;;;;;;12.20;4.95;;;;;;;14.34;69.56;99376.90;4502434;78;21800;-87
2022/07/15 21:40:19;;;;;;;10.45;5.60;;;;;;;14.37;69.63;99381.05;4497987;78;20992;-87
2022/07/15 21:46:42;;;;;;;15.50;5.62;;;;;;;14.39;70.21;99374.56;4427977;80;21067;-87
2022/07/15 21:52:56;;;;;;;14.55;6.30;;;;;;;14.30;70.92;99377.49;4387246;79;20998;-87
2022/07/15 22:05:46;;;;;;;15.55;5.70;;;;;;;14.00;70.68;99383.28;4384860;78;21629;-87
2022/07/15 22:11:49;;;;;;;14.00;5.95;;;;;;;14.06;72.18;99388.60;4443446;78;21042;-87
2022/07/15 22:18:26;;;;;;;12.23;4.72;;;;;;;14.16;72.87;99386.45;4430058;78;21160;-87
2022/07/15 22:24:49;;;;;;;12.03;4.75;;;;;;;14.24;73.22;99385.33;4542254;76;21032;-87
2022/07/15 22:30:55;;;;;;;8.75;4.72;;;;;;;14.33;73.63;99391.25;4551633;77;21623;-87
2022/07/15 22:36:59;;;;;;;8.93;3.87;;;;;;;14.43;73.97;99391.07;4558751;76;20990;-87
2022/07/15 22:43:18;;;;;;;10.98;3.35;;;;;;;14.37;73.88;99391.27;4530337;76;21001;-87
2022/07/15 22:49:29;;;;;;;9.55;3.12;;;;;;;14.25;73.97;99384.14;4486918;75;21060;-86
2022/07/15 22:55:39;;;;;;;5.53;3.17;;;;;;;14.29;74.91;99380.03;4503412;77;21005;-87
2022/07/15 23:01:41;;;;;;;8.43;2.98;;;;;;;14.31;74.79;99388.70;4507411;77;21048;-86
2022/07/15 23:07:43;;;;;;;7.45;3.25;;;;;;;14.22;75.19;99388.25;4511298;77;20968;-87
2022/07/15 23:13:44;;;;;;;5.72;3.60;;;;;;;14.27;75.40;99387.30;4517245;77;20982;-87
2022/07/15 23:20:18;;;;;;;10.30;3.35;;;;;;;14.18;75.42;99390.99;4515598;77;21915;-87
2022/07/15 23:33:24;;;;;;;9.08;3.77;;;;;;;14.15;75.66;99390.39;4500940;77;21048;-87
2022/07/15 23:39:35;;;;;;;9.48;3.60;;;;;;;14.16;76.08;99393.34;4502041;78;20973;-87
2022/07/15 23:45:53;;;;;;;8.63;3.92;;;;;;;14.16;76.09;99401.02;4515604;77;21076;-86
2022/07/15 23:52:16;;;;;;;6.90;3.27;;;;;;;14.03;76.18;99393.52;4401005;79;21869;-87
2022/07/15 23:58:45;;;;;;;9.23;3.87;;;;;;;14.00;76.67;99388.78;4234018;83;21006;-86
